FDMS

Matsapha Airport

Manzini, Swaziland
METAR FDMS 171000Z 00000KT 9999 BKN035 26/19 Q1016 NOSIG
Observed Flight Rules
Feb-17 @ 10:00 UTC (21 hours ago) Visual Flight Rules
Wind Visibility Clouds
Calm 10,000+ meters
  • Broken at 3,500' AGL
Temperatures Readings
Current 26°C / 79°F
Dewpoint 19°C / 66°F
Humidity 65%
Altimeter 30" Hg
Pressure 1016 hPa
Elevation 641
METAR FDMS 171000Z 00000KT 9999 BKN035 26/19 Q1016 NOSIG
Observed Flight Rules
Feb-17 @ 10:00 UTC
(21 hours ago)
VFR
Wind Visibility
Calm 10,000+ meters
Clouds
  • Broken at 3,500' AGL
Temperature Dewpoint
26°C / 79°F 19°C / 66°F
Humidity Altimeter Pressure
65% 30" Hg 1016 hPa